sensor_id;sensor_type;location;lat;lon;timestamp;P1;durP1;ratioP1;P2;durP2;ratioP2
23684;SDS011;12020;51.384;6.908;2023-07-09T00:03:08;5.88;;;4.20;;
23684;SDS011;12020;51.384;6.908;2023-07-09T00:11:06;5.93;;;4.30;;
23684;SDS011;12020;51.384;6.908;2023-07-09T00:13:42;5.32;;;4.70;;
23684;SDS011;12020;51.384;6.908;2023-07-09T00:16:26;6.15;;;4.30;;
23684;SDS011;12020;51.384;6.908;2023-07-09T00:18:58;6.80;;;4.63;;
23684;SDS011;12020;51.384;6.908;2023-07-09T00:27:23;5.82;;;4.55;;
23684;SDS011;12020;51.384;6.908;2023-07-09T00:29:53;5.35;;;4.55;;
23684;SDS011;12020;51.384;6.908;2023-07-09T00:32:21;6.00;;;4.60;;
23684;SDS011;12020;51.384;6.908;2023-07-09T00:34:59;6.15;;;4.50;;
23684;SDS011;12020;51.384;6.908;2023-07-09T00:37:31;7.47;;;4.45;;
23684;SDS011;12020;51.384;6.908;2023-07-09T00:39:57;5.28;;;4.20;;
23684;SDS011;12020;51.384;6.908;2023-07-09T00:42:25;6.90;;;4.70;;
23684;SDS011;12020;51.384;6.908;2023-07-09T00:44:58;6.63;;;4.70;;
23684;SDS011;12020;51.384;6.908;2023-07-09T00:53:15;6.88;;;4.65;;
23684;SDS011;12020;51.384;6.908;2023-07-09T00:55:56;6.03;;;4.70;;
23684;SDS011;12020;51.384;6.908;2023-07-09T00:58:31;6.45;;;4.70;;
23684;SDS011;12020;51.384;6.908;2023-07-09T01:01:04;7.28;;;4.63;;
23684;SDS011;12020;51.384;6.908;2023-07-09T01:06:09;5.97;;;4.70;;
23684;SDS011;12020;51.384;6.908;2023-07-09T01:08:39;6.13;;;4.50;;
23684;SDS011;12020;51.384;6.908;2023-07-09T01:11:17;6.15;;;4.90;;
23684;SDS011;12020;51.384;6.908;2023-07-09T01:13:48;5.70;;;4.40;;
23684;SDS011;12020;51.384;6.908;2023-07-09T01:16:17;5.63;;;4.83;;
23684;SDS011;12020;51.384;6.908;2023-07-09T01:18:44;5.82;;;4.55;;
23684;SDS011;12020;51.384;6.908;2023-07-09T01:21:16;5.10;;;4.60;;
23684;SDS011;12020;51.384;6.908;2023-07-09T01:23:47;6.63;;;4.70;;
23684;SDS011;12020;51.384;6.908;2023-07-09T01:26:18;5.97;;;4.82;;
23684;SDS011;12020;51.384;6.908;2023-07-09T01:28:47;5.90;;;4.53;;
23684;SDS011;12020;51.384;6.908;2023-07-09T01:31:18;6.78;;;4.82;;
23684;SDS011;12020;51.384;6.908;2023-07-09T01:36:20;5.45;;;4.60;;
23684;SDS011;12020;51.384;6.908;2023-07-09T01:38:50;5.93;;;4.80;;
23684;SDS011;12020;51.384;6.908;2023-07-09T01:41:19;6.47;;;4.88;;
23684;SDS011;12020;51.384;6.908;2023-07-09T01:43:56;7.07;;;4.87;;
23684;SDS011;12020;51.384;6.908;2023-07-09T01:46:23;5.73;;;4.73;;
23684;SDS011;12020;51.384;6.908;2023-07-09T01:48:53;5.70;;;4.70;;
23684;SDS011;12020;51.384;6.908;2023-07-09T01:51:21;6.47;;;4.90;;
23684;SDS011;12020;51.384;6.908;2023-07-09T01:53:49;6.53;;;4.50;;
23684;SDS011;12020;51.384;6.908;2023-07-09T01:56:16;6.65;;;4.95;;
23684;SDS011;12020;51.384;6.908;2023-07-09T01:58:43;6.53;;;4.85;;
23684;SDS011;12020;51.384;6.908;2023-07-09T02:01:15;8.10;;;5.10;;
23684;SDS011;12020;51.384;6.908;2023-07-09T02:03:46;6.28;;;4.57;;
23684;SDS011;12020;51.384;6.908;2023-07-09T02:06:14;6.13;;;4.93;;
23684;SDS011;12020;51.384;6.908;2023-07-09T02:08:42;6.40;;;4.80;;
23684;SDS011;12020;51.384;6.908;2023-07-09T02:11:10;6.20;;;5.30;;
23684;SDS011;12020;51.384;6.908;2023-07-09T02:13:36;8.40;;;5.28;;
23684;SDS011;12020;51.384;6.908;2023-07-09T02:16:03;6.43;;;5.00;;
23684;SDS011;12020;51.384;6.908;2023-07-09T02:18:30;5.93;;;5.20;;
23684;SDS011;12020;51.384;6.908;2023-07-09T02:20:56;6.43;;;4.82;;
23684;SDS011;12020;51.384;6.908;2023-07-09T02:23:26;6.65;;;5.05;;
23684;SDS011;12020;51.384;6.908;2023-07-09T02:25:54;7.23;;;4.83;;
23684;SDS011;12020;51.384;6.908;2023-07-09T02:28:24;7.10;;;5.17;;
23684;SDS011;12020;51.384;6.908;2023-07-09T02:30:50;6.60;;;5.30;;
23684;SDS011;12020;51.384;6.908;2023-07-09T02:33:16;5.78;;;5.18;;
23684;SDS011;12020;51.384;6.908;2023-07-09T02:35:42;7.38;;;5.05;;
23684;SDS011;12020;51.384;6.908;2023-07-09T02:38:07;6.50;;;5.43;;
23684;SDS011;12020;51.384;6.908;2023-07-09T02:40:33;5.80;;;5.15;;
23684;SDS011;12020;51.384;6.908;2023-07-09T02:42:59;7.15;;;4.95;;
23684;SDS011;12020;51.384;6.908;2023-07-09T02:45:26;6.68;;;5.43;;
23684;SDS011;12020;51.384;6.908;2023-07-09T02:47:55;7.15;;;5.43;;
23684;SDS011;12020;51.384;6.908;2023-07-09T02:50:23;6.22;;;4.90;;
23684;SDS011;12020;51.384;6.908;2023-07-09T02:52:49;7.25;;;5.53;;
23684;SDS011;12020;51.384;6.908;2023-07-09T02:55:17;6.85;;;5.05;;
23684;SDS011;12020;51.384;6.908;2023-07-09T02:57:43;7.38;;;5.20;;
23684;SDS011;12020;51.384;6.908;2023-07-09T03:00:09;6.07;;;5.30;;
23684;SDS011;12020;51.384;6.908;2023-07-09T03:02:35;6.45;;;5.22;;
23684;SDS011;12020;51.384;6.908;2023-07-09T03:05:01;6.27;;;5.37;;
23684;SDS011;12020;51.384;6.908;2023-07-09T03:07:27;7.13;;;5.37;;
23684;SDS011;12020;51.384;6.908;2023-07-09T03:09:53;7.33;;;5.43;;
23684;SDS011;12020;51.384;6.908;2023-07-09T03:12:22;6.82;;;5.35;;
23684;SDS011;12020;51.384;6.908;2023-07-09T03:14:48;8.38;;;5.18;;
23684;SDS011;12020;51.384;6.908;2023-07-09T03:17:14;7.00;;;5.55;;
23684;SDS011;12020;51.384;6.908;2023-07-09T03:19:40;6.60;;;5.28;;
23684;SDS011;12020;51.384;6.908;2023-07-09T03:22:08;6.45;;;5.57;;
23684;SDS011;12020;51.384;6.908;2023-07-09T03:24:34;6.45;;;5.38;;
23684;SDS011;12020;51.384;6.908;2023-07-09T03:27:00;6.78;;;5.15;;
23684;SDS011;12020;51.384;6.908;2023-07-09T03:29:26;7.13;;;5.30;;
23684;SDS011;12020;51.384;6.908;2023-07-09T03:31:52;7.90;;;5.60;;
23684;SDS011;12020;51.384;6.908;2023-07-09T03:34:17;7.07;;;5.63;;
23684;SDS011;12020;51.384;6.908;2023-07-09T03:36:44;6.78;;;5.60;;
23684;SDS011;12020;51.384;6.908;2023-07-09T03:39:11;6.30;;;5.18;;
23684;SDS011;12020;51.384;6.908;2023-07-09T03:41:39;6.68;;;5.38;;
23684;SDS011;12020;51.384;6.908;2023-07-09T03:44:06;6.15;;;5.30;;
23684;SDS011;12020;51.384;6.908;2023-07-09T03:46:33;6.78;;;5.25;;
23684;SDS011;12020;51.384;6.908;2023-07-09T03:48:59;6.45;;;5.50;;
23684;SDS011;12020;51.384;6.908;2023-07-09T03:51:26;6.60;;;5.82;;
23684;SDS011;12020;51.384;6.908;2023-07-09T03:53:53;6.35;;;4.97;;
23684;SDS011;12020;51.384;6.908;2023-07-09T03:56:18;6.43;;;5.50;;
23684;SDS011;12020;51.384;6.908;2023-07-09T03:58:51;6.57;;;5.47;;
23684;SDS011;12020;51.384;6.908;2023-07-09T04:01:20;6.70;;;5.80;;
23684;SDS011;12020;51.384;6.908;2023-07-09T04:03:46;6.72;;;5.63;;
23684;SDS011;12020;51.384;6.908;2023-07-09T04:06:16;7.47;;;5.38;;
23684;SDS011;12020;51.384;6.908;2023-07-09T04:08:44;6.85;;;5.40;;
23684;SDS011;12020;51.384;6.908;2023-07-09T04:11:10;6.07;;;5.30;;
23684;SDS011;12020;51.384;6.908;2023-07-09T04:13:37;8.70;;;5.60;;
23684;SDS011;12020;51.384;6.908;2023-07-09T04:16:04;6.57;;;5.47;;
23684;SDS011;12020;51.384;6.908;2023-07-09T04:18:32;7.50;;;5.72;;
23684;SDS011;12020;51.384;6.908;2023-07-09T04:21:00;5.68;;;5.05;;
23684;SDS011;12020;51.384;6.908;2023-07-09T04:23:26;6.82;;;5.30;;
23684;SDS011;12020;51.384;6.908;2023-07-09T04:25:52;6.75;;;5.30;;
23684;SDS011;12020;51.384;6.908;2023-07-09T04:28:17;7.28;;;5.60;;
23684;SDS011;12020;51.384;6.908;2023-07-09T04:30:48;7.07;;;5.60;;
23684;SDS011;12020;51.384;6.908;2023-07-09T04:33:15;6.80;;;5.05;;
23684;SDS011;12020;51.384;6.908;2023-07-09T04:38:17;7.85;;;5.72;;
23684;SDS011;12020;51.384;6.908;2023-07-09T04:40:46;6.45;;;5.35;;
23684;SDS011;12020;51.384;6.908;2023-07-09T04:43:14;5.95;;;5.30;;
23684;SDS011;12020;51.384;6.908;2023-07-09T04:45:40;6.57;;;5.30;;
23684;SDS011;12020;51.384;6.908;2023-07-09T04:48:10;7.10;;;5.65;;
23684;SDS011;12020;51.384;6.908;2023-07-09T04:50:35;9.23;;;5.93;;
23684;SDS011;12020;51.384;6.908;2023-07-09T04:53:01;7.78;;;5.55;;
23684;SDS011;12020;51.384;6.908;2023-07-09T04:55:26;6.97;;;5.55;;
23684;SDS011;12020;51.384;6.908;2023-07-09T04:57:54;7.55;;;5.82;;
23684;SDS011;12020;51.384;6.908;2023-07-09T05:00:21;9.73;;;5.70;;
23684;SDS011;12020;51.384;6.908;2023-07-09T05:02:47;9.17;;;5.57;;
23684;SDS011;12020;51.384;6.908;2023-07-09T05:05:13;8.20;;;5.30;;
23684;SDS011;12020;51.384;6.908;2023-07-09T05:07:39;8.85;;;5.93;;
23684;SDS011;12020;51.384;6.908;2023-07-09T05:10:05;6.90;;;5.57;;
23684;SDS011;12020;51.384;6.908;2023-07-09T05:12:31;7.55;;;5.45;;
23684;SDS011;12020;51.384;6.908;2023-07-09T05:14:57;7.40;;;5.47;;
23684;SDS011;12020;51.384;6.908;2023-07-09T05:17:23;7.63;;;5.18;;
23684;SDS011;12020;51.384;6.908;2023-07-09T05:19:49;7.05;;;5.07;;
23684;SDS011;12020;51.384;6.908;2023-07-09T05:22:15;6.18;;;5.03;;
23684;SDS011;12020;51.384;6.908;2023-07-09T05:24:41;6.67;;;5.17;;
23684;SDS011;12020;51.384;6.908;2023-07-09T05:27:07;7.00;;;5.22;;
23684;SDS011;12020;51.384;6.908;2023-07-09T05:29:33;7.95;;;5.05;;
23684;SDS011;12020;51.384;6.908;2023-07-09T05:31:59;8.00;;;5.50;;
23684;SDS011;12020;51.384;6.908;2023-07-09T05:34:25;7.47;;;5.28;;
23684;SDS011;12020;51.384;6.908;2023-07-09T05:36:51;8.25;;;5.47;;
23684;SDS011;12020;51.384;6.908;2023-07-09T05:39:17;6.43;;;4.90;;
23684;SDS011;12020;51.384;6.908;2023-07-09T05:41:43;6.10;;;5.10;;
23684;SDS011;12020;51.384;6.908;2023-07-09T05:44:08;6.00;;;4.95;;
23684;SDS011;12020;51.384;6.908;2023-07-09T05:46:35;9.33;;;5.33;;
23684;SDS011;12020;51.384;6.908;2023-07-09T05:49:02;5.90;;;5.27;;
23684;SDS011;12020;51.384;6.908;2023-07-09T05:51:28;7.33;;;5.27;;
23684;SDS011;12020;51.384;6.908;2023-07-09T05:53:54;6.77;;;5.23;;
23684;SDS011;12020;51.384;6.908;2023-07-09T05:56:20;7.23;;;5.50;;
23684;SDS011;12020;51.384;6.908;2023-07-09T05:58:45;6.25;;;5.18;;
23684;SDS011;12020;51.384;6.908;2023-07-09T06:01:12;6.97;;;5.32;;
23684;SDS011;12020;51.384;6.908;2023-07-09T06:03:38;8.30;;;5.63;;
23684;SDS011;12020;51.384;6.908;2023-07-09T06:06:04;7.35;;;5.45;;
23684;SDS011;12020;51.384;6.908;2023-07-09T06:08:31;7.45;;;5.53;;
23684;SDS011;12020;51.384;6.908;2023-07-09T06:11:01;7.27;;;5.00;;
23684;SDS011;12020;51.384;6.908;2023-07-09T06:13:28;7.15;;;5.35;;
23684;SDS011;12020;51.384;6.908;2023-07-09T06:15:55;6.32;;;5.70;;
23684;SDS011;12020;51.384;6.908;2023-07-09T06:18:23;8.48;;;5.43;;
23684;SDS011;12020;51.384;6.908;2023-07-09T06:20:50;6.13;;;5.25;;
23684;SDS011;12020;51.384;6.908;2023-07-09T06:23:17;7.93;;;5.53;;
23684;SDS011;12020;51.384;6.908;2023-07-09T06:25:44;7.85;;;5.30;;
23684;SDS011;12020;51.384;6.908;2023-07-09T06:28:15;9.73;;;5.53;;
23684;SDS011;12020;51.384;6.908;2023-07-09T06:30:42;7.65;;;6.10;;
23684;SDS011;12020;51.384;6.908;2023-07-09T06:33:08;6.22;;;5.32;;
23684;SDS011;12020;51.384;6.908;2023-07-09T06:35:35;8.02;;;5.63;;
23684;SDS011;12020;51.384;6.908;2023-07-09T06:38:00;7.85;;;5.80;;
23684;SDS011;12020;51.384;6.908;2023-07-09T06:40:26;8.38;;;5.47;;
23684;SDS011;12020;51.384;6.908;2023-07-09T06:45:22;7.75;;;5.60;;
23684;SDS011;12020;51.384;6.908;2023-07-09T06:47:49;6.73;;;5.50;;
23684;SDS011;12020;51.384;6.908;2023-07-09T06:50:16;6.78;;;5.10;;
23684;SDS011;12020;51.384;6.908;2023-07-09T06:52:41;8.60;;;5.90;;
23684;SDS011;12020;51.384;6.908;2023-07-09T06:55:07;7.50;;;5.90;;
23684;SDS011;12020;51.384;6.908;2023-07-09T06:57:34;8.93;;;6.07;;
23684;SDS011;12020;51.384;6.908;2023-07-09T07:00:00;7.35;;;5.60;;
23684;SDS011;12020;51.384;6.908;2023-07-09T07:02:26;6.85;;;5.75;;
23684;SDS011;12020;51.384;6.908;2023-07-09T07:04:52;7.25;;;5.82;;
23684;SDS011;12020;51.384;6.908;2023-07-09T07:07:19;8.07;;;5.68;;
23684;SDS011;12020;51.384;6.908;2023-07-09T07:09:46;7.45;;;5.47;;
23684;SDS011;12020;51.384;6.908;2023-07-09T07:12:19;7.88;;;5.65;;
23684;SDS011;12020;51.384;6.908;2023-07-09T07:14:53;6.22;;;5.60;;
23684;SDS011;12020;51.384;6.908;2023-07-09T07:17:20;6.85;;;5.60;;
23684;SDS011;12020;51.384;6.908;2023-07-09T07:19:49;7.18;;;5.40;;
23684;SDS011;12020;51.384;6.908;2023-07-09T07:22:15;6.72;;;5.43;;
23684;SDS011;12020;51.384;6.908;2023-07-09T07:24:41;8.10;;;5.30;;
23684;SDS011;12020;51.384;6.908;2023-07-09T07:27:07;7.40;;;5.77;;
23684;SDS011;12020;51.384;6.908;2023-07-09T07:29:34;6.97;;;5.28;;
23684;SDS011;12020;51.384;6.908;2023-07-09T07:32:00;7.32;;;5.63;;
23684;SDS011;12020;51.384;6.908;2023-07-09T07:34:26;6.15;;;5.32;;
23684;SDS011;12020;51.384;6.908;2023-07-09T07:36:51;7.03;;;5.70;;
23684;SDS011;12020;51.384;6.908;2023-07-09T07:39:17;8.40;;;6.00;;
23684;SDS011;12020;51.384;6.908;2023-07-09T07:41:46;7.23;;;5.20;;
23684;SDS011;12020;51.384;6.908;2023-07-09T07:44:13;8.00;;;5.70;;
23684;SDS011;12020;51.384;6.908;2023-07-09T07:46:39;6.13;;;4.97;;
23684;SDS011;12020;51.384;6.908;2023-07-09T07:49:06;7.50;;;5.47;;
23684;SDS011;12020;51.384;6.908;2023-07-09T07:51:34;6.93;;;5.47;;
23684;SDS011;12020;51.384;6.908;2023-07-09T07:54:05;7.10;;;5.32;;
23684;SDS011;12020;51.384;6.908;2023-07-09T07:56:31;7.03;;;5.18;;
23684;SDS011;12020;51.384;6.908;2023-07-09T07:58:59;6.35;;;5.32;;
23684;SDS011;12020;51.384;6.908;2023-07-09T08:01:27;7.45;;;5.65;;
23684;SDS011;12020;51.384;6.908;2023-07-09T08:03:57;7.37;;;5.27;;
23684;SDS011;12020;51.384;6.908;2023-07-09T08:11:54;6.05;;;5.03;;
23684;SDS011;12020;51.384;6.908;2023-07-09T08:14:21;6.85;;;5.30;;
23684;SDS011;12020;51.384;6.908;2023-07-09T08:16:49;7.50;;;5.20;;
23684;SDS011;12020;51.384;6.908;2023-07-09T08:24:19;7.65;;;5.90;;
23684;SDS011;12020;51.384;6.908;2023-07-09T08:26:54;8.17;;;5.50;;
23684;SDS011;12020;51.384;6.908;2023-07-09T08:29:25;6.88;;;5.60;;
23684;SDS011;12020;51.384;6.908;2023-07-09T08:34:41;9.30;;;5.63;;
23684;SDS011;12020;51.384;6.908;2023-07-09T08:37:10;9.20;;;6.00;;
23684;SDS011;12020;51.384;6.908;2023-07-09T08:39:38;10.05;;;5.70;;
23684;SDS011;12020;51.384;6.908;2023-07-09T08:42:19;6.93;;;5.45;;
23684;SDS011;12020;51.384;6.908;2023-07-09T08:50:32;9.30;;;5.40;;
23684;SDS011;12020;51.384;6.908;2023-07-09T08:52:59;7.55;;;5.45;;
23684;SDS011;12020;51.384;6.908;2023-07-09T08:58:49;6.37;;;5.00;;
23684;SDS011;12020;51.384;6.908;2023-07-09T09:04:29;7.68;;;5.68;;
23684;SDS011;12020;51.384;6.908;2023-07-09T09:40:59;5.90;;;4.18;;
23684;SDS011;12020;51.384;6.908;2023-07-09T09:43:32;6.68;;;4.63;;
23684;SDS011;12020;51.384;6.908;2023-07-09T09:45:59;6.00;;;4.35;;
23684;SDS011;12020;51.384;6.908;2023-07-09T09:48:30;6.27;;;4.23;;
23684;SDS011;12020;51.384;6.908;2023-07-09T09:51:02;6.32;;;4.38;;
23684;SDS011;12020;51.384;6.908;2023-07-09T09:53:30;5.95;;;4.55;;
23684;SDS011;12020;51.384;6.908;2023-07-09T09:56:04;5.78;;;4.18;;
23684;SDS011;12020;51.384;6.908;2023-07-09T10:01:15;5.30;;;4.15;;
23684;SDS011;12020;51.384;6.908;2023-07-09T10:22:22;5.68;;;3.90;;
23684;SDS011;12020;51.384;6.908;2023-07-09T10:30:19;5.75;;;4.00;;
23684;SDS011;12020;51.384;6.908;2023-07-09T10:33:10;6.97;;;4.20;;
23684;SDS011;12020;51.384;6.908;2023-07-09T10:35:45;4.30;;;3.72;;
23684;SDS011;12020;51.384;6.908;2023-07-09T10:38:35;5.83;;;3.90;;
23684;SDS011;12020;51.384;6.908;2023-07-09T10:41:24;4.03;;;3.63;;
23684;SDS011;12020;51.384;6.908;2023-07-09T10:49:21;4.75;;;3.78;;
23684;SDS011;12020;51.384;6.908;2023-07-09T10:58:24;4.25;;;3.47;;
23684;SDS011;12020;51.384;6.908;2023-07-09T11:20:54;4.95;;;3.70;;
23684;SDS011;12020;51.384;6.908;2023-07-09T11:25:59;4.78;;;3.60;;
23684;SDS011;12020;51.384;6.908;2023-07-09T11:36:26;4.28;;;3.45;;
23684;SDS011;12020;51.384;6.908;2023-07-09T11:54:19;8.07;;;4.03;;
23684;SDS011;12020;51.384;6.908;2023-07-09T11:56:56;4.28;;;3.22;;
23684;SDS011;12020;51.384;6.908;2023-07-09T11:59:24;5.13;;;4.07;;
23684;SDS011;12020;51.384;6.908;2023-07-09T12:01:50;6.07;;;3.83;;
23684;SDS011;12020;51.384;6.908;2023-07-09T12:04:20;6.07;;;3.83;;
23684;SDS011;12020;51.384;6.908;2023-07-09T12:06:48;5.23;;;4.17;;
23684;SDS011;12020;51.384;6.908;2023-07-09T12:09:19;4.88;;;3.92;;
23684;SDS011;12020;51.384;6.908;2023-07-09T12:11:53;4.70;;;3.65;;
23684;SDS011;12020;51.384;6.908;2023-07-09T12:14:24;5.20;;;3.60;;
23684;SDS011;12020;51.384;6.908;2023-07-09T12:16:52;5.32;;;3.72;;
23684;SDS011;12020;51.384;6.908;2023-07-09T12:19:20;4.40;;;3.70;;
23684;SDS011;12020;51.384;6.908;2023-07-09T12:21:56;5.57;;;4.10;;
23684;SDS011;12020;51.384;6.908;2023-07-09T12:24:27;5.28;;;3.80;;
23684;SDS011;12020;51.384;6.908;2023-07-09T12:26:59;5.32;;;3.78;;
23684;SDS011;12020;51.384;6.908;2023-07-09T12:29:42;4.28;;;3.67;;
23684;SDS011;12020;51.384;6.908;2023-07-09T12:32:19;5.65;;;3.55;;
23684;SDS011;12020;51.384;6.908;2023-07-09T12:34:53;5.35;;;4.28;;
23684;SDS011;12020;51.384;6.908;2023-07-09T12:37:22;5.50;;;3.70;;
23684;SDS011;12020;51.384;6.908;2023-07-09T12:42:43;5.85;;;3.80;;
23684;SDS011;12020;51.384;6.908;2023-07-09T12:45:19;5.57;;;4.07;;
23684;SDS011;12020;51.384;6.908;2023-07-09T12:53:13;5.78;;;4.15;;
23684;SDS011;12020;51.384;6.908;2023-07-09T12:55:42;6.00;;;4.18;;
23684;SDS011;12020;51.384;6.908;2023-07-09T12:58:10;5.13;;;3.83;;
23684;SDS011;12020;51.384;6.908;2023-07-09T13:00:41;6.90;;;4.20;;
23684;SDS011;12020;51.384;6.908;2023-07-09T13:03:12;5.73;;;4.20;;
23684;SDS011;12020;51.384;6.908;2023-07-09T13:05:50;6.85;;;4.03;;
23684;SDS011;12020;51.384;6.908;2023-07-09T13:08:18;4.70;;;4.20;;
23684;SDS011;12020;51.384;6.908;2023-07-09T13:10:43;6.05;;;4.50;;
23684;SDS011;12020;51.384;6.908;2023-07-09T13:13:10;5.20;;;4.40;;
23684;SDS011;12020;51.384;6.908;2023-07-09T13:15:43;6.97;;;4.50;;
23684;SDS011;12020;51.384;6.908;2023-07-09T13:18:13;5.97;;;4.20;;
23684;SDS011;12020;51.384;6.908;2023-07-09T13:20:40;5.28;;;4.63;;
23684;SDS011;12020;51.384;6.908;2023-07-09T13:23:11;5.15;;;4.10;;
23684;SDS011;12020;51.384;6.908;2023-07-09T13:25:44;5.80;;;4.50;;
23684;SDS011;12020;51.384;6.908;2023-07-09T13:28:31;5.17;;;4.33;;
23684;SDS011;12020;51.384;6.908;2023-07-09T13:31:13;5.13;;;4.27;;
23684;SDS011;12020;51.384;6.908;2023-07-09T13:33:44;5.30;;;4.20;;
23684;SDS011;12020;51.384;6.908;2023-07-09T13:36:19;6.03;;;4.38;;
23684;SDS011;12020;51.384;6.908;2023-07-09T13:38:45;4.93;;;4.27;;
23684;SDS011;12020;51.384;6.908;2023-07-09T13:41:15;5.40;;;4.45;;
23684;SDS011;12020;51.384;6.908;2023-07-09T13:43:43;6.85;;;5.03;;
23684;SDS011;12020;51.384;6.908;2023-07-09T13:46:11;5.05;;;4.25;;
23684;SDS011;12020;51.384;6.908;2023-07-09T13:48:40;7.72;;;4.88;;
23684;SDS011;12020;51.384;6.908;2023-07-09T13:51:15;10.10;;;5.50;;
23684;SDS011;12020;51.384;6.908;2023-07-09T13:53:47;9.43;;;5.50;;
23684;SDS011;12020;51.384;6.908;2023-07-09T13:56:15;12.25;;;6.57;;
23684;SDS011;12020;51.384;6.908;2023-07-09T13:58:40;27.47;;;10.00;;
23684;SDS011;12020;51.384;6.908;2023-07-09T14:01:10;24.40;;;9.13;;
23684;SDS011;12020;51.384;6.908;2023-07-09T14:03:40;9.30;;;6.10;;
23684;SDS011;12020;51.384;6.908;2023-07-09T14:06:09;7.22;;;5.15;;
23684;SDS011;12020;51.384;6.908;2023-07-09T14:08:38;6.65;;;5.07;;
23684;SDS011;12020;51.384;6.908;2023-07-09T14:13:47;7.45;;;5.63;;
23684;SDS011;12020;51.384;6.908;2023-07-09T14:16:14;8.10;;;6.03;;
23684;SDS011;12020;51.384;6.908;2023-07-09T14:18:41;6.47;;;5.22;;
23684;SDS011;12020;51.384;6.908;2023-07-09T14:21:11;8.07;;;5.03;;
23684;SDS011;12020;51.384;6.908;2023-07-09T14:23:45;6.45;;;5.03;;
23684;SDS011;12020;51.384;6.908;2023-07-09T14:26:12;6.93;;;5.25;;
23684;SDS011;12020;51.384;6.908;2023-07-09T14:28:39;6.90;;;5.28;;
23684;SDS011;12020;51.384;6.908;2023-07-09T14:31:18;6.95;;;5.18;;
23684;SDS011;12020;51.384;6.908;2023-07-09T14:33:48;8.23;;;5.30;;
23684;SDS011;12020;51.384;6.908;2023-07-09T14:38:49;15.52;;;8.75;;
23684;SDS011;12020;51.384;6.908;2023-07-09T14:41:21;12.03;;;7.00;;
23684;SDS011;12020;51.384;6.908;2023-07-09T14:44:14;9.25;;;5.88;;
23684;SDS011;12020;51.384;6.908;2023-07-09T14:46:51;8.85;;;6.15;;
23684;SDS011;12020;51.384;6.908;2023-07-09T14:49:18;8.57;;;6.20;;
23684;SDS011;12020;51.384;6.908;2023-07-09T14:51:45;9.95;;;6.45;;
23684;SDS011;12020;51.384;6.908;2023-07-09T14:54:27;8.95;;;6.00;;
23684;SDS011;12020;51.384;6.908;2023-07-09T14:56:55;8.05;;;6.35;;
23684;SDS011;12020;51.384;6.908;2023-07-09T14:59:22;10.25;;;6.78;;
23684;SDS011;12020;51.384;6.908;2023-07-09T15:01:48;9.55;;;5.90;;
23684;SDS011;12020;51.384;6.908;2023-07-09T15:06:41;9.30;;;5.97;;
23684;SDS011;12020;51.384;6.908;2023-07-09T15:09:07;5.78;;;4.63;;
23684;SDS011;12020;51.384;6.908;2023-07-09T15:11:34;7.50;;;4.88;;
23684;SDS011;12020;51.384;6.908;2023-07-09T15:14:01;9.25;;;5.47;;
23684;SDS011;12020;51.384;6.908;2023-07-09T15:16:27;7.45;;;4.90;;
23684;SDS011;12020;51.384;6.908;2023-07-09T15:18:52;6.20;;;4.97;;
23684;SDS011;12020;51.384;6.908;2023-07-09T15:21:19;6.78;;;4.95;;
23684;SDS011;12020;51.384;6.908;2023-07-09T15:23:45;6.90;;;5.10;;
23684;SDS011;12020;51.384;6.908;2023-07-09T15:26:14;7.90;;;5.50;;
23684;SDS011;12020;51.384;6.908;2023-07-09T15:28:40;7.25;;;5.28;;
23684;SDS011;12020;51.384;6.908;2023-07-09T15:31:09;7.30;;;5.67;;
23684;SDS011;12020;51.384;6.908;2023-07-09T15:33:37;7.85;;;5.75;;
23684;SDS011;12020;51.384;6.908;2023-07-09T15:36:08;7.80;;;5.53;;
23684;SDS011;12020;51.384;6.908;2023-07-09T15:38:37;7.85;;;6.00;;
23684;SDS011;12020;51.384;6.908;2023-07-09T15:41:07;6.63;;;5.43;;
23684;SDS011;12020;51.384;6.908;2023-07-09T15:46:28;7.35;;;5.45;;
23684;SDS011;12020;51.384;6.908;2023-07-09T15:48:59;9.60;;;5.88;;
23684;SDS011;12020;51.384;6.908;2023-07-09T15:51:28;7.57;;;5.78;;
23684;SDS011;12020;51.384;6.908;2023-07-09T15:54:04;9.43;;;6.00;;
23684;SDS011;12020;51.384;6.908;2023-07-09T15:56:37;9.80;;;6.47;;
23684;SDS011;12020;51.384;6.908;2023-07-09T16:01:41;8.05;;;5.95;;
23684;SDS011;12020;51.384;6.908;2023-07-09T16:04:11;7.22;;;5.80;;
23684;SDS011;12020;51.384;6.908;2023-07-09T16:06:37;6.83;;;5.83;;
23684;SDS011;12020;51.384;6.908;2023-07-09T16:09:08;6.80;;;5.93;;
23684;SDS011;12020;51.384;6.908;2023-07-09T16:11:36;7.07;;;6.00;;
23684;SDS011;12020;51.384;6.908;2023-07-09T16:19:33;6.75;;;6.03;;
23684;SDS011;12020;51.384;6.908;2023-07-09T16:22:00;7.45;;;5.90;;
23684;SDS011;12020;51.384;6.908;2023-07-09T16:24:38;7.07;;;5.70;;
23684;SDS011;12020;51.384;6.908;2023-07-09T16:29:44;9.43;;;6.05;;
23684;SDS011;12020;51.384;6.908;2023-07-09T16:37:17;7.05;;;6.18;;
23684;SDS011;12020;51.384;6.908;2023-07-09T16:39:49;7.30;;;6.30;;
23684;SDS011;12020;51.384;6.908;2023-07-09T16:42:22;7.18;;;5.90;;
23684;SDS011;12020;51.384;6.908;2023-07-09T16:44:57;8.95;;;6.07;;
23684;SDS011;12020;51.384;6.908;2023-07-09T16:47:24;7.22;;;5.88;;
23684;SDS011;12020;51.384;6.908;2023-07-09T16:49:51;9.48;;;6.53;;
23684;SDS011;12020;51.384;6.908;2023-07-09T16:52:23;7.47;;;6.25;;
23684;SDS011;12020;51.384;6.908;2023-07-09T16:54:50;7.63;;;6.28;;
23684;SDS011;12020;51.384;6.908;2023-07-09T16:57:22;6.82;;;6.13;;
23684;SDS011;12020;51.384;6.908;2023-07-09T16:59:53;7.25;;;5.80;;
23684;SDS011;12020;51.384;6.908;2023-07-09T17:02:41;7.43;;;6.22;;
23684;SDS011;12020;51.384;6.908;2023-07-09T17:05:06;7.38;;;6.15;;
23684;SDS011;12020;51.384;6.908;2023-07-09T17:07:33;7.10;;;5.78;;
23684;SDS011;12020;51.384;6.908;2023-07-09T17:09:59;8.32;;;6.00;;
23684;SDS011;12020;51.384;6.908;2023-07-09T17:12:29;7.35;;;6.00;;
23684;SDS011;12020;51.384;6.908;2023-07-09T17:14:58;9.00;;;6.15;;
23684;SDS011;12020;51.384;6.908;2023-07-09T17:17:25;6.43;;;5.72;;
23684;SDS011;12020;51.384;6.908;2023-07-09T17:19:56;7.17;;;6.33;;
23684;SDS011;12020;51.384;6.908;2023-07-09T17:22:33;7.60;;;6.35;;
23684;SDS011;12020;51.384;6.908;2023-07-09T17:25:00;7.70;;;6.10;;
23684;SDS011;12020;51.384;6.908;2023-07-09T17:35:15;10.05;;;6.40;;
23684;SDS011;12020;51.384;6.908;2023-07-09T17:37:54;7.20;;;6.20;;
23684;SDS011;12020;51.384;6.908;2023-07-09T20:52:16;19.50;;;16.73;;
23684;SDS011;12020;51.384;6.908;2023-07-09T20:54:51;18.63;;;16.83;;
23684;SDS011;12020;51.384;6.908;2023-07-09T21:00:02;21.65;;;19.38;;
23684;SDS011;12020;51.384;6.908;2023-07-09T21:02:36;20.08;;;18.02;;
23684;SDS011;12020;51.384;6.908;2023-07-09T21:05:02;20.65;;;18.45;;
23684;SDS011;12020;51.384;6.908;2023-07-09T21:10:20;18.77;;;16.88;;
23684;SDS011;12020;51.384;6.908;2023-07-09T21:12:51;19.20;;;16.67;;
23684;SDS011;12020;51.384;6.908;2023-07-09T21:17:58;16.45;;;14.27;;
23684;SDS011;12020;51.384;6.908;2023-07-09T21:23:04;16.30;;;13.32;;
23684;SDS011;12020;51.384;6.908;2023-07-09T21:25:41;15.82;;;14.10;;
23684;SDS011;12020;51.384;6.908;2023-07-09T21:28:24;15.17;;;13.57;;
23684;SDS011;12020;51.384;6.908;2023-07-09T21:30:52;14.68;;;13.25;;
23684;SDS011;12020;51.384;6.908;2023-07-09T21:33:22;15.32;;;13.10;;
23684;SDS011;12020;51.384;6.908;2023-07-09T21:35:52;15.07;;;13.48;;
23684;SDS011;12020;51.384;6.908;2023-07-09T21:38:24;16.98;;;13.68;;
23684;SDS011;12020;51.384;6.908;2023-07-09T21:41:00;15.83;;;13.57;;
23684;SDS011;12020;51.384;6.908;2023-07-09T21:43:37;15.80;;;13.63;;
23684;SDS011;12020;51.384;6.908;2023-07-09T21:46:03;15.37;;;13.70;;
23684;SDS011;12020;51.384;6.908;2023-07-09T21:48:31;15.13;;;13.10;;
23684;SDS011;12020;51.384;6.908;2023-07-09T21:50:57;19.30;;;13.00;;
23684;SDS011;12020;51.384;6.908;2023-07-09T21:53:30;17.90;;;13.85;;
23684;SDS011;12020;51.384;6.908;2023-07-09T21:55:58;14.63;;;12.40;;